Time,TemperatureF,DewpointF,PressureIn,WindDirection,WindDirectionDegrees,WindSpeedMPH,WindSpeedGustMPH,Humidity,HourlyPrecipIn,Conditions,Clouds,dailyrainin,SoftwareType,DateUTC
2013-01-29 00:02:00,31.5,30.2,29.48,WNW,292,1.7,-999.0,95,-99.99,,,0.00,Acu-Link.com,2013-01-29 06:02:00,
2013-01-29 00:17:00,31.5,30.2,29.48,NE,45,0.0,-999.0,95,-99.99,,,0.00,Acu-Link.com,2013-01-29 06:17:00,
2013-01-29 00:32:00,31.5,30.2,29.47,North,0,0.0,-999.0,95,-99.99,,,0.00,Acu-Link.com,2013-01-29 06:32:00,
2013-01-29 00:48:00,31.5,30.2,29.46,North,0,0.0,-999.0,95,-99.99,,,0.00,Acu-Link.com,2013-01-29 06:48:00,
2013-01-29 01:03:00,31.5,30.2,29.46,NE,45,0.0,-999.0,95,-99.99,,,0.00,Acu-Link.com,2013-01-29 07:03:00,
2013-01-29 01:18:00,31.5,30.2,29.47,West,270,2.2,-999.0,95,-99.99,,,0.00,Acu-Link.com,2013-01-29 07:18:00,
2013-01-29 01:33:00,31.5,30.2,29.46,NNW,337,0.0,-999.0,95,-99.99,,,0.00,Acu-Link.com,2013-01-29 07:33:00,
2013-01-29 01:48:00,31.5,30.2,29.45,West,270,0.0,-999.0,95,-99.99,,,0.00,Acu-Link.com,2013-01-29 07:48:00,
2013-01-29 02:04:00,31.5,30.2,29.48,NW,315,3.2,-999.0,95,-99.99,,,0.00,Acu-Link.com,2013-01-29 08:04:00,
2013-01-29 02:19:00,31.5,30.2,29.46,NNE,22,0.0,-999.0,95,-99.99,,,0.00,Acu-Link.com,2013-01-29 08:19:00,
2013-01-29 02:34:00,31.5,30.2,29.45,NNW,337,0.0,-999.0,95,-99.99,,,0.00,Acu-Link.com,2013-01-29 08:34:00,
2013-01-29 02:49:00,31.5,30.2,29.45,NNW,337,0.0,-999.0,95,-99.99,,,0.00,Acu-Link.com,2013-01-29 08:49:00,
2013-01-29 03:15:00,31.5,30.2,29.45,NNE,22,0.0,-999.0,95,-99.99,,,0.00,Acu-Link.com,2013-01-29 09:15:00,
2013-01-29 03:30:00,31.5,30.2,29.45,NNW,337,0.0,-999.0,95,-99.99,,,0.00,Acu-Link.com,2013-01-29 09:30:00,
2013-01-29 03:45:00,31.5,30.2,29.46,NE,45,0.0,-999.0,95,-99.99,,,0.00,Acu-Link.com,2013-01-29 09:45:00,
2013-01-29 04:01:00,31.5,30.2,29.44,ENE,67,0.0,-999.0,95,-99.99,,,0.00,Acu-Link.com,2013-01-29 10:01:00,
2013-01-29 04:16:00,31.3,30.0,29.44,WNW,292,0.0,-999.0,95,-99.99,,,0.00,Acu-Link.com,2013-01-29 10:16:00,
2013-01-29 04:31:00,31.3,30.0,29.45,West,270,1.1,-999.0,95,-99.99,,,0.00,Acu-Link.com,2013-01-29 10:31:00,
2013-01-29 04:46:00,31.3,30.0,29.45,SW,225,1.7,-999.0,95,-99.99,,,0.00,Acu-Link.com,2013-01-29 10:46:00,
2013-01-29 05:02:00,31.3,30.0,29.45,NNE,22,1.1,-999.0,95,-99.99,,,0.00,Acu-Link.com,2013-01-29 11:02:00,
2013-01-29 05:17:00,31.3,30.0,29.43,North,0,0.0,-999.0,95,-99.99,,,0.00,Acu-Link.com,2013-01-29 11:17:00,
2013-01-29 05:32:00,31.3,30.0,29.42,NNE,22,0.0,-999.0,95,-99.99,,,0.00,Acu-Link.com,2013-01-29 11:32:00,
2013-01-29 05:47:00,31.1,29.8,29.42,South,180,1.1,-999.0,95,-99.99,,,0.00,Acu-Link.com,2013-01-29 11:47:00,
2013-01-29 06:02:00,31.1,29.8,29.43,NNW,337,2.2,-999.0,95,-99.99,,,0.00,Acu-Link.com,2013-01-29 12:02:00,
2013-01-29 06:18:00,31.1,29.6,29.42,ESE,112,2.2,-999.0,94,-99.99,,,0.00,Acu-Link.com,2013-01-29 12:18:00,
2013-01-29 06:33:00,31.1,29.3,29.42,NE,45,1.1,-999.0,93,-99.99,,,0.00,Acu-Link.com,2013-01-29 12:33:00,
2013-01-29 06:48:00,30.9,29.1,29.44,NW,315,1.7,-999.0,93,-99.99,,,0.00,Acu-Link.com,2013-01-29 12:48:00,
2013-01-29 07:03:00,30.9,28.9,29.46,SSW,202,1.7,-999.0,92,-99.99,,,0.00,Acu-Link.com,2013-01-29 13:03:00,
2013-01-29 07:18:00,30.4,28.4,29.48,SW,225,1.7,-999.0,92,-99.99,,,0.00,Acu-Link.com,2013-01-29 13:18:00,
2013-01-29 07:34:00,30.0,27.7,29.49,North,0,2.7,-999.0,91,-99.99,,,0.00,Acu-Link.com,2013-01-29 13:34:00,
2013-01-29 07:49:00,29.7,27.4,29.50,South,180,3.2,-999.0,91,-99.99,,,0.00,Acu-Link.com,2013-01-29 13:49:00,
2013-01-29 08:04:00,29.3,26.7,29.49,NNW,337,1.1,-999.0,90,-99.99,,,0.00,Acu-Link.com,2013-01-29 14:04:00,
2013-01-29 08:19:00,28.9,26.1,29.49,West,270,0.0,-999.0,89,-99.99,,,0.00,Acu-Link.com,2013-01-29 14:19:00,
2013-01-29 08:34:00,29.3,26.5,29.50,ENE,67,1.1,-999.0,89,-99.99,,,0.00,Acu-Link.com,2013-01-29 14:34:00,
2013-01-29 08:50:00,29.1,26.0,29.50,NNE,22,1.7,-999.0,88,-99.99,,,0.00,Acu-Link.com,2013-01-29 14:50:00,
2013-01-29 09:05:00,29.7,26.0,29.49,North,0,2.2,-999.0,86,-99.99,,,0.00,Acu-Link.com,2013-01-29 15:05:00,
2013-01-29 09:20:00,30.0,26.0,29.48,NW,315,3.2,-999.0,85,-99.99,,,0.00,Acu-Link.com,2013-01-29 15:20:00,
2013-01-29 09:35:00,31.6,27.3,29.49,WSW,247,2.2,-999.0,84,-99.99,,,0.00,Acu-Link.com,2013-01-29 15:35:00,
2013-01-29 09:51:00,30.2,26.0,29.50,SE,135,2.7,-999.0,84,-99.99,,,0.00,Acu-Link.com,2013-01-29 15:51:00,
2013-01-29 10:06:00,31.1,26.6,29.52,NNE,22,1.7,-999.0,83,-99.99,,,0.00,Acu-Link.com,2013-01-29 16:06:00,
2013-01-29 10:21:00,31.5,26.9,29.53,NNE,22,2.2,-999.0,83,-99.99,,,0.00,Acu-Link.com,2013-01-29 16:21:00,
2013-01-29 10:36:00,31.3,26.7,29.51,NE,45,1.7,-999.0,83,-99.99,,,0.00,Acu-Link.com,2013-01-29 16:36:00,
2013-01-29 10:51:00,30.6,26.4,29.52,ENE,67,1.7,-999.0,84,-99.99,,,0.00,Acu-Link.com,2013-01-29 16:51:00,
2013-01-29 11:07:00,31.5,26.9,29.52,NNW,337,1.7,-999.0,83,-99.99,,,0.00,Acu-Link.com,2013-01-29 17:07:00,
2013-01-29 11:22:00,31.6,27.0,29.54,NNE,22,1.1,-999.0,83,-99.99,,,0.00,Acu-Link.com,2013-01-29 17:22:00,
2013-01-29 11:37:00,31.5,26.7,29.54,NNE,22,1.7,-999.0,82,-99.99,,,0.01,Acu-Link.com,2013-01-29 17:37:00,
2013-01-29 11:52:00,31.5,26.7,29.54,WNW,292,2.2,-999.0,82,-99.99,,,0.01,Acu-Link.com,2013-01-29 17:52:00,
2013-01-29 12:07:00,31.3,26.2,29.54,NNE,22,2.7,-999.0,81,-99.99,,,0.01,Acu-Link.com,2013-01-29 18:07:00,
2013-01-29 12:23:00,31.5,26.4,29.53,WSW,247,2.2,-999.0,81,-99.99,,,0.01,Acu-Link.com,2013-01-29 18:23:00,
2013-01-29 12:38:00,31.1,26.0,29.52,NNE,22,2.2,-999.0,81,-99.99,,,0.01,Acu-Link.com,2013-01-29 18:38:00,
2013-01-29 12:53:00,30.6,25.2,29.51,NNE,22,2.2,-999.0,80,-99.99,,,0.01,Acu-Link.com,2013-01-29 18:53:00,
2013-01-29 13:08:00,30.0,24.6,29.52,ENE,67,1.7,-999.0,80,-99.99,,,0.01,Acu-Link.com,2013-01-29 19:08:00,
2013-01-29 13:23:00,30.4,25.3,29.53,ENE,67,1.7,-999.0,81,-99.99,,,0.02,Acu-Link.com,2013-01-29 19:23:00,
2013-01-29 13:39:00,29.5,24.7,29.53,ENE,67,1.7,-999.0,82,-99.99,,,0.02,Acu-Link.com,2013-01-29 19:39:00,
2013-01-29 13:54:00,29.5,24.7,29.53,ENE,67,2.2,-999.0,82,-99.99,,,0.02,Acu-Link.com,2013-01-29 19:54:00,
2013-01-29 14:09:00,29.8,25.0,29.53,ENE,67,1.7,-999.0,82,-99.99,,,0.02,Acu-Link.com,2013-01-29 20:09:00,
2013-01-29 14:24:00,30.0,24.6,29.53,NNE,22,2.2,-999.0,80,-99.99,,,0.02,Acu-Link.com,2013-01-29 20:24:00,
2013-01-29 14:39:00,29.3,23.9,29.54,NNE,22,2.2,-999.0,80,-99.99,,,0.03,Acu-Link.com,2013-01-29 20:39:00,
2013-01-29 14:55:00,30.2,24.2,29.54,NNE,22,2.2,-999.0,78,-99.99,,,0.03,Acu-Link.com,2013-01-29 20:55:00,
2013-01-29 15:10:00,30.0,24.0,29.55,NW,315,2.2,-999.0,78,-99.99,,,0.03,Acu-Link.com,2013-01-29 21:10:00,
2013-01-29 15:25:00,29.7,24.0,29.57,NE,45,2.2,-999.0,79,-99.99,,,0.03,Acu-Link.com,2013-01-29 21:25:00,
2013-01-29 15:40:00,29.3,23.9,29.57,NNW,337,2.7,-999.0,80,-99.99,,,0.03,Acu-Link.com,2013-01-29 21:40:00,
2013-01-29 15:56:00,28.2,22.8,29.57,NW,315,4.2,-999.0,80,-99.99,,,0.03,Acu-Link.com,2013-01-29 21:56:00,
2013-01-29 16:11:00,27.9,22.8,29.57,NNW,337,3.7,-999.0,81,-99.99,,,0.03,Acu-Link.com,2013-01-29 22:11:00,
2013-01-29 16:26:00,27.1,22.3,29.58,West,270,3.2,-999.0,82,-99.99,,,0.03,Acu-Link.com,2013-01-29 22:26:00,
2013-01-29 16:41:00,26.2,21.5,29.58,North,0,3.2,-999.0,82,-99.99,,,0.03,Acu-Link.com,2013-01-29 22:41:00,
2013-01-29 16:56:00,26.1,21.4,29.58,WNW,292,2.7,-999.0,82,-99.99,,,0.03,Acu-Link.com,2013-01-29 22:56:00,
2013-01-29 17:12:00,25.3,20.9,29.59,NNE,22,2.7,-999.0,83,-99.99,,,0.03,Acu-Link.com,2013-01-29 23:12:00,
2013-01-29 17:27:00,24.6,20.5,29.57,SW,225,2.7,-999.0,84,-99.99,,,0.03,Acu-Link.com,2013-01-29 23:27:00,
2013-01-29 17:42:00,24.4,20.3,29.59,NW,315,2.7,-999.0,84,-99.99,,,0.03,Acu-Link.com,2013-01-29 23:42:00,
2013-01-29 17:57:00,24.4,20.6,29.59,East,90,3.2,-999.0,85,-99.99,,,0.03,Acu-Link.com,2013-01-29 23:57:00,
2013-01-29 18:12:00,24.3,20.5,29.60,WNW,292,2.7,-999.0,85,-99.99,,,0.03,Acu-Link.com,2013-01-30 00:12:00,
2013-01-29 18:28:00,24.3,20.5,29.61,NNE,22,2.2,-999.0,85,-99.99,,,0.03,Acu-Link.com,2013-01-30 00:28:00,
2013-01-29 18:43:00,24.3,20.5,29.61,NE,45,2.2,-999.0,85,-99.99,,,0.03,Acu-Link.com,2013-01-30 00:43:00,
2013-01-29 18:58:00,24.3,20.5,29.62,North,0,2.7,-999.0,85,-99.99,,,0.03,Acu-Link.com,2013-01-30 00:58:00,
2013-01-29 19:13:00,23.9,20.1,29.61,NNE,22,4.2,-999.0,85,-99.99,,,0.03,Acu-Link.com,2013-01-30 01:13:00,
2013-01-29 19:28:00,23.9,20.1,29.62,WSW,247,3.2,-999.0,85,-99.99,,,0.03,Acu-Link.com,2013-01-30 01:28:00,
2013-01-29 19:44:00,23.7,19.9,29.64,SW,225,4.2,-999.0,85,-99.99,,,0.03,Acu-Link.com,2013-01-30 01:44:00,
2013-01-29 19:59:00,23.7,19.9,29.65,ESE,112,3.2,-999.0,85,-99.99,,,0.03,Acu-Link.com,2013-01-30 01:59:00,
2013-01-29 20:14:00,23.4,19.6,29.63,WNW,292,3.7,-999.0,85,-99.99,,,0.03,Acu-Link.com,2013-01-30 02:14:00,
2013-01-29 20:29:00,23.2,19.4,29.64,SE,135,2.7,-999.0,85,-99.99,,,0.03,Acu-Link.com,2013-01-30 02:29:00,
2013-01-29 20:45:00,23.2,19.4,29.66,NNE,22,1.7,-999.0,85,-99.99,,,0.03,Acu-Link.com,2013-01-30 02:45:00,
2013-01-29 21:00:00,23.0,19.2,29.66,WNW,292,3.2,-999.0,85,-99.99,,,0.03,Acu-Link.com,2013-01-30 03:00:00,
2013-01-29 21:15:00,22.6,18.8,29.64,West,270,2.7,-999.0,85,-99.99,,,0.03,Acu-Link.com,2013-01-30 03:15:00,
2013-01-29 21:30:00,22.6,18.8,29.64,WSW,247,1.7,-999.0,85,-99.99,,,0.03,Acu-Link.com,2013-01-30 03:30:00,
2013-01-29 21:45:00,22.5,18.7,29.65,West,270,3.7,-999.0,85,-99.99,,,0.03,Acu-Link.com,2013-01-30 03:45:00,
2013-01-29 22:01:00,22.5,18.7,29.65,NW,315,5.3,-999.0,85,-99.99,,,0.03,Acu-Link.com,2013-01-30 04:01:00,
2013-01-29 22:16:00,22.5,18.1,29.66,ENE,67,3.2,-999.0,83,-99.99,,,0.03,Acu-Link.com,2013-01-30 04:16:00,
2013-01-29 22:31:00,22.5,18.1,29.67,East,90,2.7,-999.0,83,-99.99,,,0.03,Acu-Link.com,2013-01-30 04:31:00,
2013-01-29 22:47:00,22.5,18.1,29.67,West,270,2.7,-999.0,83,-99.99,,,0.03,Acu-Link.com,2013-01-30 04:47:00,
2013-01-29 23:17:00,21.9,17.3,29.64,West,270,2.7,-999.0,82,-99.99,,,0.03,Acu-Link.com,2013-01-30 05:17:00,
2013-01-29 23:32:00,21.9,16.7,29.65,West,270,3.2,-999.0,80,-99.99,,,0.03,Acu-Link.com,2013-01-30 05:32:00,
2013-01-29 23:48:00,21.9,16.7,29.65,ESE,112,2.2,-999.0,80,-99.99,,,0.03,Acu-Link.com,2013-01-30 05:48:00,